Date,TemperatureHighF,TemperatureAvgF,TemperatureLowF,DewpointHighF,DewpointAvgF,DewpointLowF,HumidityHigh,HumidityAvg,HumidityLow,PressureMaxIn,PressureMinIn,WindSpeedMaxMPH,WindSpeedAvgMPH,GustSpeedMaxMPH,PrecipitationSumIn
2013-5-1,84,72,60,-100,-100,-100,0,0,100,0.00,40.00,0,-999,0,0.00
2013-5-2,77,64,52,-100,-100,-100,0,0,100,0.00,40.00,0,-999,0,0.00
2013-5-3,63,54,50,-100,-100,-100,0,0,100,0.00,40.00,0,-999,0,0.00
2013-5-4,51,49,46,-100,-100,-100,0,0,100,0.00,40.00,0,-999,0,0.00
2013-5-5,61,56,50,-100,-100,-100,0,0,100,0.00,40.00,0,-999,0,0.00
2013-5-6,67,60,55,-100,-100,-100,0,0,100,0.00,40.00,0,-999,0,0.00
2013-5-7,79,68,59,-100,-100,-100,0,0,100,0.00,40.00,0,-999,0,0.00
2013-5-8,85,71,56,-100,-100,-100,0,0,100,0.00,40.00,0,-999,0,0.00
2013-5-9,68,65,62,-100,-100,-100,0,0,100,0.00,40.00,0,-999,0,0.00
2013-5-10,69,63,54,-100,-100,-100,0,0,100,0.00,40.00,0,-999,0,0.00
2013-5-11,66,57,49,-100,-100,-100,0,0,100,0.00,40.00,0,-999,0,0.00
2013-5-12,61,51,41,-100,-100,-100,0,0,100,0.00,40.00,0,-999,0,0.00
2013-5-13,73,60,41,-100,-100,-100,0,0,100,0.00,40.00,0,-999,0,0.00
2013-5-14,91,71,56,-100,-100,-100,0,0,100,0.00,40.00,0,-999,0,0.00
2013-5-15,92,80,70,-100,-100,-100,0,0,100,0.00,40.00,0,-999,0,0.00
2013-5-16,81,73,65,-100,-100,-100,0,0,100,0.00,40.00,0,-999,0,0.00
2013-5-17,78,71,65,-100,-100,-100,0,0,100,0.00,40.00,0,-999,0,0.00
2013-5-18,83,74,63,-100,-100,-100,0,0,100,0.00,40.00,0,-999,0,0.00
2013-5-19,88,77,68,-100,-100,-100,0,0,100,0.00,40.00,0,-999,0,0.00
2013-5-20,84,75,64,-100,-100,-100,0,0,100,0.00,40.00,0,-999,0,0.00
2013-5-21,82,74,64,-100,-100,-100,0,0,100,0.00,40.00,0,-999,0,0.00
2013-5-22,77,70,63,-100,-100,-100,0,0,100,0.00,40.00,0,-999,0,0.00
2013-5-23,63,61,56,-100,-100,-100,0,0,100,0.00,40.00,0,-999,0,0.00
2013-5-24,71,60,44,-100,-100,-100,0,0,100,0.00,40.00,0,-999,0,0.00
2013-5-25,64,58,52,-100,-100,-100,0,0,100,0.00,40.00,0,-999,0,0.00
2013-5-26,71,64,53,-100,-100,-100,0,0,100,0.00,40.00,0,-999,0,0.00
2013-5-27,84,70,65,-100,-100,-100,0,0,100,0.00,40.00,0,-999,0,0.00
2013-5-28,85,74,67,-100,-100,-100,0,0,100,0.00,40.00,0,-999,0,0.00
2013-5-29,87,76,68,-100,-100,-100,0,0,100,0.00,40.00,0,-999,0,0.00
2013-5-30,83,77,68,-100,-100,-100,0,0,100,0.00,40.00,0,-999,0,0.00
2013-5-31,78,72,66,-100,-100,-100,0,0,100,0.00,40.00,0,-999,0,0.00